sensor_id;sensor_type;location;lat;lon;timestamp;pressure;altitude;pressure_sealevel;temperature;humidity
27840;BME280;15207;42.182;24.308;2023-11-21T00:01:10;99061.16;;;5.98;88.43
27840;BME280;15207;42.182;24.308;2023-11-21T00:03:37;99059.97;;;6.04;89.27
27840;BME280;15207;42.182;24.308;2023-11-21T00:06:02;99055.16;;;6.24;88.78
27840;BME280;15207;42.182;24.308;2023-11-21T00:08:28;99049.63;;;6.27;87.25
27840;BME280;15207;42.182;24.308;2023-11-21T00:10:54;99057.91;;;6.22;87.50
27840;BME280;15207;42.182;24.308;2023-11-21T00:13:20;99047.13;;;6.11;87.01
27840;BME280;15207;42.182;24.308;2023-11-21T00:15:45;99057.94;;;5.93;86.06
27840;BME280;15207;42.182;24.308;2023-11-21T00:18:11;99057.03;;;5.65;86.84
27840;BME280;15207;42.182;24.308;2023-11-21T00:20:36;99055.22;;;5.80;86.70
27840;BME280;15207;42.182;24.308;2023-11-21T00:23:01;99055.50;;;5.75;88.29
27840;BME280;15207;42.182;24.308;2023-11-21T00:25:27;99049.72;;;5.54;88.96
27840;BME280;15207;42.182;24.308;2023-11-21T00:27:53;99065.75;;;5.52;88.97
27840;BME280;15207;42.182;24.308;2023-11-21T00:30:19;99057.50;;;5.57;89.11
27840;BME280;15207;42.182;24.308;2023-11-21T00:32:45;99061.09;;;5.71;87.61
27840;BME280;15207;42.182;24.308;2023-11-21T00:35:10;99057.69;;;5.39;89.30
27840;BME280;15207;42.182;24.308;2023-11-21T00:37:36;99061.88;;;5.43;86.46
27840;BME280;15207;42.182;24.308;2023-11-21T00:40:02;99069.06;;;5.41;86.72
27840;BME280;15207;42.182;24.308;2023-11-21T00:42:30;99064.03;;;5.22;87.80
27840;BME280;15207;42.182;24.308;2023-11-21T00:44:58;99069.47;;;5.35;87.53
27840;BME280;15207;42.182;24.308;2023-11-21T00:47:23;99077.22;;;5.09;89.27
27840;BME280;15207;42.182;24.308;2023-11-21T00:49:48;99069.72;;;5.16;89.83
27840;BME280;15207;42.182;24.308;2023-11-21T00:52:14;99060.34;;;5.25;88.84
27840;BME280;15207;42.182;24.308;2023-11-21T00:54:39;99072.47;;;5.14;90.42
27840;BME280;15207;42.182;24.308;2023-11-21T00:57:05;99064.00;;;4.93;93.09
27840;BME280;15207;42.182;24.308;2023-11-21T00:59:31;99056.72;;;5.11;93.36
27840;BME280;15207;42.182;24.308;2023-11-21T01:01:56;99056.53;;;4.69;91.17
27840;BME280;15207;42.182;24.308;2023-11-21T01:04:21;99048.66;;;4.21;93.78
27840;BME280;15207;42.182;24.308;2023-11-21T01:06:47;99057.34;;;4.39;96.01
27840;BME280;15207;42.182;24.308;2023-11-21T01:09:12;99052.50;;;4.78;94.39
27840;BME280;15207;42.182;24.308;2023-11-21T01:11:38;99063.38;;;4.73;95.16
27840;BME280;15207;42.182;24.308;2023-11-21T01:14:04;99057.75;;;4.63;93.88
27840;BME280;15207;42.182;24.308;2023-11-21T01:16:30;99054.31;;;4.61;94.08
27840;BME280;15207;42.182;24.308;2023-11-21T01:18:58;99057.38;;;4.70;94.12
27840;BME280;15207;42.182;24.308;2023-11-21T01:21:24;99056.53;;;4.69;93.80
27840;BME280;15207;42.182;24.308;2023-11-21T01:23:49;99063.16;;;4.62;94.02
27840;BME280;15207;42.182;24.308;2023-11-21T01:26:15;99045.44;;;4.62;96.13
27840;BME280;15207;42.182;24.308;2023-11-21T01:28:40;99051.22;;;4.69;96.71
27840;BME280;15207;42.182;24.308;2023-11-21T01:31:06;99048.53;;;4.85;94.54
27840;BME280;15207;42.182;24.308;2023-11-21T01:33:32;99044.56;;;4.93;91.48
27840;BME280;15207;42.182;24.308;2023-11-21T01:35:58;99047.28;;;4.76;93.42
27840;BME280;15207;42.182;24.308;2023-11-21T01:38:25;99048.84;;;4.65;93.29
27840;BME280;15207;42.182;24.308;2023-11-21T01:40:50;99056.53;;;4.69;93.03
27840;BME280;15207;42.182;24.308;2023-11-21T01:43:16;99049.41;;;4.39;92.50
27840;BME280;15207;42.182;24.308;2023-11-21T01:45:42;99045.09;;;4.22;93.48
27840;BME280;15207;42.182;24.308;2023-11-21T01:48:08;99043.00;;;4.43;93.82
27840;BME280;15207;42.182;24.308;2023-11-21T01:50:33;99037.53;;;4.30;94.70
27840;BME280;15207;42.182;24.308;2023-11-21T01:53:00;99037.75;;;4.42;95.41
27840;BME280;15207;42.182;24.308;2023-11-21T01:55:25;99037.00;;;4.40;95.24
27840;BME280;15207;42.182;24.308;2023-11-21T01:57:52;99044.59;;;4.46;95.62
27840;BME280;15207;42.182;24.308;2023-11-21T02:00:18;99034.47;;;4.69;93.83
27840;BME280;15207;42.182;24.308;2023-11-21T02:02:45;99030.06;;;4.53;91.50
27840;BME280;15207;42.182;24.308;2023-11-21T02:05:12;99023.38;;;3.67;96.17
27840;BME280;15207;42.182;24.308;2023-11-21T02:07:39;99017.28;;;3.49;99.11
27840;BME280;15207;42.182;24.308;2023-11-21T02:10:06;99018.16;;;3.15;100.00
27840;BME280;15207;42.182;24.308;2023-11-21T02:12:32;99015.34;;;3.52;100.00
27840;BME280;15207;42.182;24.308;2023-11-21T02:14:57;99007.75;;;3.78;100.00
27840;BME280;15207;42.182;24.308;2023-11-21T02:17:22;99015.00;;;3.91;100.00
27840;BME280;15207;42.182;24.308;2023-11-21T02:19:48;99012.78;;;3.99;100.00
27840;BME280;15207;42.182;24.308;2023-11-21T02:22:17;99016.19;;;4.17;99.61
27840;BME280;15207;42.182;24.308;2023-11-21T02:24:45;99007.78;;;4.09;99.80
27840;BME280;15207;42.182;24.308;2023-11-21T02:27:13;99011.00;;;3.83;100.00
27840;BME280;15207;42.182;24.308;2023-11-21T02:29:40;99011.25;;;3.95;100.00
27840;BME280;15207;42.182;24.308;2023-11-21T02:32:05;99017.31;;;3.97;100.00
27840;BME280;15207;42.182;24.308;2023-11-21T02:34:31;99016.38;;;3.82;100.00
27840;BME280;15207;42.182;24.308;2023-11-21T02:36:56;99023.19;;;4.18;100.00
27840;BME280;15207;42.182;24.308;2023-11-21T02:39:22;99026.84;;;4.32;100.00
27840;BME280;15207;42.182;24.308;2023-11-21T02:41:49;99023.84;;;4.38;100.00
27840;BME280;15207;42.182;24.308;2023-11-21T02:44:14;99022.84;;;4.25;100.00
27840;BME280;15207;42.182;24.308;2023-11-21T02:46:39;99029.34;;;4.19;100.00
27840;BME280;15207;42.182;24.308;2023-11-21T02:49:05;99032.75;;;4.21;100.00
27840;BME280;15207;42.182;24.308;2023-11-21T02:51:36;99021.41;;;4.03;97.64
27840;BME280;15207;42.182;24.308;2023-11-21T02:54:03;99022.78;;;3.94;96.03
27840;BME280;15207;42.182;24.308;2023-11-21T02:56:31;99026.44;;;3.75;95.64
27840;BME280;15207;42.182;24.308;2023-11-21T02:58:59;99031.75;;;3.75;97.14
27840;BME280;15207;42.182;24.308;2023-11-21T03:01:26;99030.56;;;3.65;96.91
27840;BME280;15207;42.182;24.308;2023-11-21T03:03:51;99025.50;;;3.60;97.37
27840;BME280;15207;42.182;24.308;2023-11-21T03:06:18;99032.94;;;3.53;97.22
27840;BME280;15207;42.182;24.308;2023-11-21T03:08:43;99039.25;;;3.51;97.08
27840;BME280;15207;42.182;24.308;2023-11-21T03:11:09;99036.78;;;3.64;96.52
27840;BME280;15207;42.182;24.308;2023-11-21T03:13:34;99026.91;;;3.83;95.48
27840;BME280;15207;42.182;24.308;2023-11-21T03:16:00;99036.81;;;3.80;94.63
27840;BME280;15207;42.182;24.308;2023-11-21T03:18:25;99035.44;;;3.89;94.40
27840;BME280;15207;42.182;24.308;2023-11-21T03:20:52;99032.28;;;3.82;93.62
27840;BME280;15207;42.182;24.308;2023-11-21T03:23:18;99038.25;;;3.02;95.35
27840;BME280;15207;42.182;24.308;2023-11-21T03:25:43;99048.78;;;3.03;95.82
27840;BME280;15207;42.182;24.308;2023-11-21T03:28:09;99045.63;;;2.79;96.88
27840;BME280;15207;42.182;24.308;2023-11-21T03:30:34;99052.84;;;2.93;97.46
27840;BME280;15207;42.182;24.308;2023-11-21T03:33:00;99051.03;;;2.94;98.87
27840;BME280;15207;42.182;24.308;2023-11-21T03:35:26;99054.38;;;2.97;98.05
27840;BME280;15207;42.182;24.308;2023-11-21T03:37:51;99051.19;;;2.55;99.87
27840;BME280;15207;42.182;24.308;2023-11-21T03:40:17;99051.28;;;2.54;100.00
27840;BME280;15207;42.182;24.308;2023-11-21T03:42:42;99048.16;;;2.63;100.00
27840;BME280;15207;42.182;24.308;2023-11-21T03:45:07;99063.72;;;2.69;100.00
27840;BME280;15207;42.182;24.308;2023-11-21T03:47:34;99060.91;;;2.90;100.00
27840;BME280;15207;42.182;24.308;2023-11-21T03:49:59;99050.88;;;3.14;98.63
27840;BME280;15207;42.182;24.308;2023-11-21T03:52:24;99048.47;;;2.74;100.00
27840;BME280;15207;42.182;24.308;2023-11-21T03:54:50;99039.84;;;2.71;100.00
27840;BME280;15207;42.182;24.308;2023-11-21T03:57:16;99041.25;;;2.96;100.00
27840;BME280;15207;42.182;24.308;2023-11-21T03:59:42;99038.13;;;3.05;100.00
27840;BME280;15207;42.182;24.308;2023-11-21T04:02:08;99038.66;;;3.12;100.00
27840;BME280;15207;42.182;24.308;2023-11-21T04:04:35;99043.91;;;3.29;100.00
27840;BME280;15207;42.182;24.308;2023-11-21T04:07:00;99046.19;;;3.20;100.00
27840;BME280;15207;42.182;24.308;2023-11-21T04:09:25;99043.06;;;3.29;100.00
27840;BME280;15207;42.182;24.308;2023-11-21T04:11:52;99053.72;;;3.61;100.00
27840;BME280;15207;42.182;24.308;2023-11-21T04:14:17;99059.03;;;3.77;99.33
27840;BME280;15207;42.182;24.308;2023-11-21T04:16:43;99066.88;;;3.95;97.02
27840;BME280;15207;42.182;24.308;2023-11-21T04:19:08;99083.31;;;4.02;96.82
27840;BME280;15207;42.182;24.308;2023-11-21T04:21:40;99081.16;;;3.92;96.35
27840;BME280;15207;42.182;24.308;2023-11-21T04:24:06;99081.00;;;3.95;94.26
27840;BME280;15207;42.182;24.308;2023-11-21T04:26:31;99077.56;;;3.93;94.88
27840;BME280;15207;42.182;24.308;2023-11-21T04:28:57;99078.91;;;3.68;98.22
27840;BME280;15207;42.182;24.308;2023-11-21T04:31:22;99085.69;;;3.40;97.81
27840;BME280;15207;42.182;24.308;2023-11-21T04:33:47;99076.47;;;3.32;99.86
27840;BME280;15207;42.182;24.308;2023-11-21T04:36:13;99067.56;;;3.33;100.00
27840;BME280;15207;42.182;24.308;2023-11-21T04:38:38;99067.38;;;3.36;100.00
27840;BME280;15207;42.182;24.308;2023-11-21T04:41:04;99074.28;;;3.56;100.00
27840;BME280;15207;42.182;24.308;2023-11-21T04:43:29;99066.72;;;3.82;100.00
27840;BME280;15207;42.182;24.308;2023-11-21T04:45:55;99070.31;;;3.97;100.00
27840;BME280;15207;42.182;24.308;2023-11-21T04:48:20;99081.50;;;4.18;100.00
27840;BME280;15207;42.182;24.308;2023-11-21T04:50:45;99071.84;;;4.33;99.52
27840;BME280;15207;42.182;24.308;2023-11-21T04:53:11;99071.09;;;3.99;100.00
27840;BME280;15207;42.182;24.308;2023-11-21T04:55:40;99068.50;;;3.97;100.00
27840;BME280;15207;42.182;24.308;2023-11-21T04:58:05;99077.31;;;3.82;100.00
27840;BME280;15207;42.182;24.308;2023-11-21T05:00:30;99065.19;;;3.94;100.00
27840;BME280;15207;42.182;24.308;2023-11-21T05:02:56;99065.88;;;4.14;100.00
27840;BME280;15207;42.182;24.308;2023-11-21T05:05:21;99071.25;;;4.28;100.00
27840;BME280;15207;42.182;24.308;2023-11-21T05:07:47;99078.06;;;4.48;100.00
27840;BME280;15207;42.182;24.308;2023-11-21T05:10:14;99076.53;;;4.44;98.48
27840;BME280;15207;42.182;24.308;2023-11-21T05:12:40;99079.28;;;4.43;95.79
27840;BME280;15207;42.182;24.308;2023-11-21T05:15:06;99081.03;;;4.58;95.14
27840;BME280;15207;42.182;24.308;2023-11-21T05:17:38;99079.81;;;4.64;95.56
27840;BME280;15207;42.182;24.308;2023-11-21T05:20:11;99087.47;;;4.38;95.83
27840;BME280;15207;42.182;24.308;2023-11-21T05:22:38;99084.22;;;4.49;95.85
27840;BME280;15207;42.182;24.308;2023-11-21T05:25:05;99085.56;;;4.56;95.40
27840;BME280;15207;42.182;24.308;2023-11-21T05:27:32;99085.16;;;4.48;96.84
27840;BME280;15207;42.182;24.308;2023-11-21T05:29:58;99087.84;;;4.32;97.95
27840;BME280;15207;42.182;24.308;2023-11-21T05:32:24;99086.22;;;3.97;96.64
27840;BME280;15207;42.182;24.308;2023-11-21T05:34:50;99093.13;;;3.83;97.33
27840;BME280;15207;42.182;24.308;2023-11-21T05:37:15;99094.97;;;3.65;99.48
27840;BME280;15207;42.182;24.308;2023-11-21T05:39:40;99087.31;;;3.77;100.00
27840;BME280;15207;42.182;24.308;2023-11-21T05:42:06;99092.94;;;3.70;100.00
27840;BME280;15207;42.182;24.308;2023-11-21T05:44:31;99089.09;;;3.76;100.00
27840;BME280;15207;42.182;24.308;2023-11-21T05:46:57;99086.53;;;3.75;100.00
27840;BME280;15207;42.182;24.308;2023-11-21T05:49:23;99093.97;;;3.68;100.00
27840;BME280;15207;42.182;24.308;2023-11-21T05:51:52;99083.03;;;3.74;100.00
27840;BME280;15207;42.182;24.308;2023-11-21T05:54:19;99079.47;;;3.91;100.00
27840;BME280;15207;42.182;24.308;2023-11-21T05:56:45;99089.28;;;4.05;100.00
27840;BME280;15207;42.182;24.308;2023-11-21T05:59:10;99097.56;;;4.31;99.99
27840;BME280;15207;42.182;24.308;2023-11-21T06:01:35;99105.03;;;4.25;100.00
27840;BME280;15207;42.182;24.308;2023-11-21T06:04:03;99110.00;;;4.31;99.55
27840;BME280;15207;42.182;24.308;2023-11-21T06:06:29;99105.19;;;4.21;99.53
27840;BME280;15207;42.182;24.308;2023-11-21T06:08:54;99101.00;;;4.33;99.59
27840;BME280;15207;42.182;24.308;2023-11-21T06:11:20;99095.13;;;4.59;98.64
27840;BME280;15207;42.182;24.308;2023-11-21T06:13:45;99111.03;;;4.75;97.33
27840;BME280;15207;42.182;24.308;2023-11-21T06:16:11;99103.22;;;4.88;98.31
27840;BME280;15207;42.182;24.308;2023-11-21T06:18:39;99107.69;;;5.02;98.92
27840;BME280;15207;42.182;24.308;2023-11-21T06:21:05;99110.31;;;5.18;98.90
27840;BME280;15207;42.182;24.308;2023-11-21T06:23:31;99108.28;;;5.52;98.04
27840;BME280;15207;42.182;24.308;2023-11-21T06:25:56;99112.16;;;5.47;98.13
27840;BME280;15207;42.182;24.308;2023-11-21T06:28:22;99115.50;;;5.50;98.81
27840;BME280;15207;42.182;24.308;2023-11-21T06:30:47;99116.78;;;5.28;98.23
27840;BME280;15207;42.182;24.308;2023-11-21T06:33:14;99113.16;;;5.29;97.07
27840;BME280;15207;42.182;24.308;2023-11-21T06:35:39;99110.81;;;5.39;95.62
27840;BME280;15207;42.182;24.308;2023-11-21T06:38:05;99110.06;;;5.37;95.96
27840;BME280;15207;42.182;24.308;2023-11-21T06:40:30;99098.28;;;5.41;95.65
27840;BME280;15207;42.182;24.308;2023-11-21T06:42:56;99102.09;;;5.52;95.11
27840;BME280;15207;42.182;24.308;2023-11-21T06:45:23;99093.47;;;5.48;95.66
27840;BME280;15207;42.182;24.308;2023-11-21T06:47:49;99095.63;;;5.41;95.85
27840;BME280;15207;42.182;24.308;2023-11-21T06:50:14;99099.91;;;5.59;95.66
27840;BME280;15207;42.182;24.308;2023-11-21T06:52:40;99104.66;;;5.82;95.29
27840;BME280;15207;42.182;24.308;2023-11-21T06:55:05;99108.44;;;5.93;94.30
27840;BME280;15207;42.182;24.308;2023-11-21T06:57:33;99115.28;;;5.82;94.61
27840;BME280;15207;42.182;24.308;2023-11-21T06:59:59;99118.25;;;5.78;95.41
27840;BME280;15207;42.182;24.308;2023-11-21T07:02:24;99118.81;;;5.83;94.78
27840;BME280;15207;42.182;24.308;2023-11-21T07:04:50;99107.09;;;6.15;92.94
27840;BME280;15207;42.182;24.308;2023-11-21T07:07:15;99111.75;;;5.96;93.00
27840;BME280;15207;42.182;24.308;2023-11-21T07:09:40;99115.09;;;6.15;93.34
27840;BME280;15207;42.182;24.308;2023-11-21T07:12:06;99115.09;;;6.00;93.57
27840;BME280;15207;42.182;24.308;2023-11-21T07:14:35;99123.38;;;6.10;93.95
27840;BME280;15207;42.182;24.308;2023-11-21T07:17:01;99109.41;;;6.06;93.51
27840;BME280;15207;42.182;24.308;2023-11-21T07:19:26;99115.19;;;5.99;94.70
27840;BME280;15207;42.182;24.308;2023-11-21T07:21:52;99113.38;;;6.14;94.22
27840;BME280;15207;42.182;24.308;2023-11-21T07:24:17;99116.38;;;6.37;93.24
27840;BME280;15207;42.182;24.308;2023-11-21T07:26:43;99117.22;;;6.37;93.93
27840;BME280;15207;42.182;24.308;2023-11-21T07:29:08;99112.97;;;6.62;91.76
27840;BME280;15207;42.182;24.308;2023-11-21T07:31:34;99114.59;;;6.78;90.93
27840;BME280;15207;42.182;24.308;2023-11-21T07:34:00;99113.69;;;6.79;90.23
27840;BME280;15207;42.182;24.308;2023-11-21T07:36:26;99114.22;;;6.84;90.16
27840;BME280;15207;42.182;24.308;2023-11-21T07:38:51;99114.53;;;6.92;90.05
27840;BME280;15207;42.182;24.308;2023-11-21T07:41:17;99108.41;;;7.05;89.58
27840;BME280;15207;42.182;24.308;2023-11-21T07:43:44;99117.69;;;7.12;90.50
27840;BME280;15207;42.182;24.308;2023-11-21T07:46:10;99107.56;;;7.30;89.12
27840;BME280;15207;42.182;24.308;2023-11-21T07:48:38;99115.47;;;7.32;89.42
27840;BME280;15207;42.182;24.308;2023-11-21T07:51:04;99122.53;;;7.46;88.70
27840;BME280;15207;42.182;24.308;2023-11-21T07:53:29;99113.47;;;7.61;88.02
27840;BME280;15207;42.182;24.308;2023-11-21T07:56:02;99113.56;;;7.73;86.48
27840;BME280;15207;42.182;24.308;2023-11-21T07:58:28;99103.44;;;7.78;86.73
27840;BME280;15207;42.182;24.308;2023-11-21T08:00:53;99108.56;;;7.81;85.63
27840;BME280;15207;42.182;24.308;2023-11-21T08:03:19;99098.03;;;8.04;85.14
27840;BME280;15207;42.182;24.308;2023-11-21T08:05:44;99108.16;;;8.12;84.09
27840;BME280;15207;42.182;24.308;2023-11-21T08:08:09;99107.72;;;8.18;83.03
27840;BME280;15207;42.182;24.308;2023-11-21T08:10:35;99106.69;;;8.45;81.65
27840;BME280;15207;42.182;24.308;2023-11-21T08:13:05;99105.81;;;8.44;81.71
27840;BME280;15207;42.182;24.308;2023-11-21T08:15:31;99105.91;;;8.56;80.71
27840;BME280;15207;42.182;24.308;2023-11-21T08:17:57;99108.25;;;8.60;79.43
27840;BME280;15207;42.182;24.308;2023-11-21T08:20:24;99109.88;;;8.75;77.99
27840;BME280;15207;42.182;24.308;2023-11-21T08:22:50;99104.88;;;8.94;76.80
27840;BME280;15207;42.182;24.308;2023-11-21T08:25:17;99103.66;;;8.98;75.92
27840;BME280;15207;42.182;24.308;2023-11-21T08:27:45;99096.38;;;9.00;76.80
27840;BME280;15207;42.182;24.308;2023-11-21T08:30:10;99105.44;;;9.22;76.07
27840;BME280;15207;42.182;24.308;2023-11-21T08:32:37;99104.75;;;9.55;74.06
27840;BME280;15207;42.182;24.308;2023-11-21T08:35:11;99099.94;;;9.83;71.37
27840;BME280;15207;42.182;24.308;2023-11-21T08:37:37;99103.19;;;9.63;71.83
27840;BME280;15207;42.182;24.308;2023-11-21T08:40:05;99083.88;;;9.71;69.34
27840;BME280;15207;42.182;24.308;2023-11-21T08:42:34;99084.72;;;9.83;69.39
27840;BME280;15207;42.182;24.308;2023-11-21T08:45:00;99080.94;;;10.09;67.88
27840;BME280;15207;42.182;24.308;2023-11-21T08:47:25;99077.13;;;10.23;67.40
27840;BME280;15207;42.182;24.308;2023-11-21T08:49:51;99079.19;;;10.30;67.40
27840;BME280;15207;42.182;24.308;2023-11-21T08:52:18;99069.69;;;10.82;65.77
27840;BME280;15207;42.182;24.308;2023-11-21T08:54:46;99055.41;;;10.60;65.55
27840;BME280;15207;42.182;24.308;2023-11-21T08:57:11;99061.25;;;10.54;66.21
27840;BME280;15207;42.182;24.308;2023-11-21T08:59:37;99059.16;;;10.69;65.03
27840;BME280;15207;42.182;24.308;2023-11-21T09:02:02;99054.00;;;10.44;65.42
27840;BME280;15207;42.182;24.308;2023-11-21T09:04:27;99047.38;;;10.60;65.33
27840;BME280;15207;42.182;24.308;2023-11-21T09:06:53;99050.41;;;10.67;64.47
27840;BME280;15207;42.182;24.308;2023-11-21T09:09:19;99048.00;;;10.85;65.50
27840;BME280;15207;42.182;24.308;2023-11-21T09:11:44;99037.25;;;10.64;64.06
27840;BME280;15207;42.182;24.308;2023-11-21T09:14:11;99029.47;;;10.61;64.71
27840;BME280;15207;42.182;24.308;2023-11-21T09:16:38;99029.63;;;10.80;63.67
27840;BME280;15207;42.182;24.308;2023-11-21T09:19:04;99020.88;;;10.78;63.78
27840;BME280;15207;42.182;24.308;2023-11-21T09:21:30;99012.53;;;10.93;63.82
27840;BME280;15207;42.182;24.308;2023-11-21T09:23:56;99019.50;;;11.05;62.94
27840;BME280;15207;42.182;24.308;2023-11-21T09:26:21;99000.28;;;11.00;63.50
27840;BME280;15207;42.182;24.308;2023-11-21T09:28:47;99006.44;;;11.12;62.60
27840;BME280;15207;42.182;24.308;2023-11-21T09:31:13;99001.09;;;11.22;63.11
27840;BME280;15207;42.182;24.308;2023-11-21T09:33:43;98995.91;;;11.20;63.60
27840;BME280;15207;42.182;24.308;2023-11-21T09:36:12;99005.19;;;11.16;64.20
27840;BME280;15207;42.182;24.308;2023-11-21T09:38:41;99005.00;;;11.08;64.64
27840;BME280;15207;42.182;24.308;2023-11-21T09:41:18;98995.59;;;11.14;65.31
27840;BME280;15207;42.182;24.308;2023-11-21T09:43:46;98994.25;;;11.29;64.32
27840;BME280;15207;42.182;24.308;2023-11-21T09:46:12;98985.84;;;11.44;62.14
27840;BME280;15207;42.182;24.308;2023-11-21T09:48:45;98968.56;;;11.68;59.93
27840;BME280;15207;42.182;24.308;2023-11-21T09:51:12;98970.00;;;11.82;58.13
27840;BME280;15207;42.182;24.308;2023-11-21T09:53:38;98969.06;;;12.02;56.62
27840;BME280;15207;42.182;24.308;2023-11-21T09:56:06;98971.63;;;12.14;57.17
27840;BME280;15207;42.182;24.308;2023-11-21T09:58:34;98957.78;;;12.09;56.61
27840;BME280;15207;42.182;24.308;2023-11-21T10:01:01;98961.63;;;12.16;56.31
27840;BME280;15207;42.182;24.308;2023-11-21T10:03:28;98958.81;;;12.27;55.11
27840;BME280;15207;42.182;24.308;2023-11-21T10:05:54;98962.06;;;12.21;55.50
27840;BME280;15207;42.182;24.308;2023-11-21T10:08:22;98958.81;;;12.27;55.61
27840;BME280;15207;42.182;24.308;2023-11-21T10:10:49;98951.00;;;12.44;55.35
27840;BME280;15207;42.182;24.308;2023-11-21T10:13:17;98950.31;;;12.42;54.80
27840;BME280;15207;42.182;24.308;2023-11-21T10:15:44;98952.16;;;12.41;54.95
27840;BME280;15207;42.182;24.308;2023-11-21T10:18:15;98946.94;;;12.30;54.98
27840;BME280;15207;42.182;24.308;2023-11-21T10:20:40;98937.31;;;12.27;54.37
27840;BME280;15207;42.182;24.308;2023-11-21T10:23:07;98937.31;;;12.37;54.05
27840;BME280;15207;42.182;24.308;2023-11-21T10:25:36;98929.97;;;12.39;53.98
27840;BME280;15207;42.182;24.308;2023-11-21T10:28:02;98920.66;;;12.43;53.86
27840;BME280;15207;42.182;24.308;2023-11-21T10:30:35;98925.88;;;12.25;53.43
27840;BME280;15207;42.182;24.308;2023-11-21T10:33:05;98918.94;;;12.33;52.84
27840;BME280;15207;42.182;24.308;2023-11-21T10:35:44;98915.56;;;12.30;53.28
27840;BME280;15207;42.182;24.308;2023-11-21T10:38:15;98911.75;;;12.33;53.36
27840;BME280;15207;42.182;24.308;2023-11-21T10:40:41;98909.19;;;12.41;53.00
27840;BME280;15207;42.182;24.308;2023-11-21T10:43:08;98903.78;;;12.61;53.25
27840;BME280;15207;42.182;24.308;2023-11-21T10:45:35;98889.50;;;12.70;52.99
27840;BME280;15207;42.182;24.308;2023-11-21T10:48:05;98885.66;;;12.73;52.59
27840;BME280;15207;42.182;24.308;2023-11-21T10:50:33;98876.53;;;12.94;51.48
27840;BME280;15207;42.182;24.308;2023-11-21T10:53:04;98857.22;;;12.80;51.66
27840;BME280;15207;42.182;24.308;2023-11-21T10:55:30;98848.31;;;12.80;52.42
27840;BME280;15207;42.182;24.308;2023-11-21T10:57:59;98834.19;;;12.78;53.29
27840;BME280;15207;42.182;24.308;2023-11-21T11:00:26;98829.69;;;12.68;53.01
27840;BME280;15207;42.182;24.308;2023-11-21T11:02:52;98825.16;;;12.69;52.82
27840;BME280;15207;42.182;24.308;2023-11-21T11:05:25;98812.91;;;12.56;54.15
27840;BME280;15207;42.182;24.308;2023-11-21T11:07:51;98809.63;;;12.63;52.45
27840;BME280;15207;42.182;24.308;2023-11-21T11:10:22;98785.56;;;12.71;52.41
27840;BME280;15207;42.182;24.308;2023-11-21T11:12:51;98782.88;;;12.71;52.77
27840;BME280;15207;42.182;24.308;2023-11-21T11:15:19;98784.13;;;12.77;52.72
27840;BME280;15207;42.182;24.308;2023-11-21T11:17:45;98787.13;;;12.74;53.33
27840;BME280;15207;42.182;24.308;2023-11-21T11:20:12;98785.75;;;12.60;53.87
27840;BME280;15207;42.182;24.308;2023-11-21T11:25:27;98790.16;;;12.61;54.41
27840;BME280;15207;42.182;24.308;2023-11-21T11:28:07;98787.25;;;12.72;53.44
27840;BME280;15207;42.182;24.308;2023-11-21T11:30:46;98790.81;;;12.73;53.93
27840;BME280;15207;42.182;24.308;2023-11-21T11:38:28;98767.63;;;12.24;55.49
27840;BME280;15207;42.182;24.308;2023-11-21T11:40:56;98760.31;;;12.16;55.87
27840;BME280;15207;42.182;24.308;2023-11-21T11:43:25;98755.38;;;12.11;56.33
27840;BME280;15207;42.182;24.308;2023-11-21T11:45:55;98761.53;;;12.32;56.08
27840;BME280;15207;42.182;24.308;2023-11-21T11:48:22;98767.19;;;12.28;56.01
27840;BME280;15207;42.182;24.308;2023-11-21T11:51:03;98782.50;;;12.08;55.86
27840;BME280;15207;42.182;24.308;2023-11-21T11:53:35;98780.50;;;12.10;56.08
27840;BME280;15207;42.182;24.308;2023-11-21T11:56:40;98792.78;;;12.23;55.96
27840;BME280;15207;42.182;24.308;2023-11-21T11:59:06;98788.44;;;12.12;57.03
27840;BME280;15207;42.182;24.308;2023-11-21T12:01:34;98793.22;;;12.18;56.71
27840;BME280;15207;42.182;24.308;2023-11-21T12:06:45;98802.63;;;12.42;57.60
27840;BME280;15207;42.182;24.308;2023-11-21T12:09:18;98802.34;;;12.45;57.44
27840;BME280;15207;42.182;24.308;2023-11-21T12:11:45;98812.78;;;12.48;57.64
27840;BME280;15207;42.182;24.308;2023-11-21T12:14:12;98801.09;;;12.39;57.00
27840;BME280;15207;42.182;24.308;2023-11-21T12:16:39;98797.34;;;12.60;55.67
27840;BME280;15207;42.182;24.308;2023-11-21T12:19:04;98786.53;;;12.70;55.45
27840;BME280;15207;42.182;24.308;2023-11-21T12:21:30;98783.78;;;12.62;55.84
27840;BME280;15207;42.182;24.308;2023-11-21T12:23:55;98763.16;;;12.52;55.53
27840;BME280;15207;42.182;24.308;2023-11-21T12:26:24;98751.00;;;12.58;55.22
27840;BME280;15207;42.182;24.308;2023-11-21T12:28:53;98752.38;;;12.62;54.97
27840;BME280;15207;42.182;24.308;2023-11-21T12:31:22;98752.34;;;12.72;55.03
27840;BME280;15207;42.182;24.308;2023-11-21T12:33:47;98750.72;;;12.79;55.62
27840;BME280;15207;42.182;24.308;2023-11-21T12:36:13;98741.50;;;12.92;54.42
27840;BME280;15207;42.182;24.308;2023-11-21T12:38:39;98732.88;;;12.88;53.82
27840;BME280;15207;42.182;24.308;2023-11-21T12:41:05;98735.31;;;12.81;54.47
27840;BME280;15207;42.182;24.308;2023-11-21T12:43:32;98751.84;;;12.87;54.24
27840;BME280;15207;42.182;24.308;2023-11-21T12:46:16;98754.81;;;12.83;53.75
27840;BME280;15207;42.182;24.308;2023-11-21T12:48:43;98759.38;;;12.83;53.84
27840;BME280;15207;42.182;24.308;2023-11-21T12:51:11;98748.22;;;12.78;54.05
27840;BME280;15207;42.182;24.308;2023-11-21T12:53:38;98751.72;;;12.78;53.54
27840;BME280;15207;42.182;24.308;2023-11-21T12:56:11;98754.28;;;12.80;53.23
27840;BME280;15207;42.182;24.308;2023-11-21T12:58:37;98742.84;;;12.78;54.63
27840;BME280;15207;42.182;24.308;2023-11-21T13:01:04;98748.66;;;12.73;53.94
27840;BME280;15207;42.182;24.308;2023-11-21T13:03:30;98743.13;;;12.75;54.29